sensor_id;sensor_type;location;lat;lon;timestamp;P1;durP1;ratioP1;P2;durP2;ratioP2
1829;SDS011;914;48.118;11.600;2023-02-07T00:00:38;14.03;;;11.03;;
1829;SDS011;914;48.118;11.600;2023-02-07T00:03:04;15.33;;;11.43;;
1829;SDS011;914;48.118;11.600;2023-02-07T00:05:29;17.47;;;12.47;;
1829;SDS011;914;48.118;11.600;2023-02-07T00:07:55;17.33;;;11.20;;
1829;SDS011;914;48.118;11.600;2023-02-07T00:10:21;16.40;;;11.73;;
1829;SDS011;914;48.118;11.600;2023-02-07T00:12:46;18.07;;;11.50;;
1829;SDS011;914;48.118;11.600;2023-02-07T00:15:12;15.60;;;11.77;;
1829;SDS011;914;48.118;11.600;2023-02-07T00:17:38;17.03;;;12.10;;
1829;SDS011;914;48.118;11.600;2023-02-07T00:20:04;14.37;;;11.33;;
1829;SDS011;914;48.118;11.600;2023-02-07T00:22:30;17.10;;;11.43;;
1829;SDS011;914;48.118;11.600;2023-02-07T00:24:56;14.87;;;10.43;;
1829;SDS011;914;48.118;11.600;2023-02-07T00:27:21;14.97;;;11.73;;
1829;SDS011;914;48.118;11.600;2023-02-07T00:29:47;16.37;;;12.03;;
1829;SDS011;914;48.118;11.600;2023-02-07T00:32:13;15.13;;;11.63;;
1829;SDS011;914;48.118;11.600;2023-02-07T00:34:38;17.40;;;11.87;;
1829;SDS011;914;48.118;11.600;2023-02-07T00:37:08;14.87;;;11.57;;
1829;SDS011;914;48.118;11.600;2023-02-07T00:39:34;17.33;;;12.00;;
1829;SDS011;914;48.118;11.600;2023-02-07T00:41:59;18.00;;;11.60;;
1829;SDS011;914;48.118;11.600;2023-02-07T00:44:25;13.63;;;10.80;;
1829;SDS011;914;48.118;11.600;2023-02-07T00:46:51;16.23;;;11.47;;
1829;SDS011;914;48.118;11.600;2023-02-07T00:49:17;15.73;;;12.00;;
1829;SDS011;914;48.118;11.600;2023-02-07T00:51:42;17.47;;;11.73;;
1829;SDS011;914;48.118;11.600;2023-02-07T00:54:08;14.97;;;10.87;;
1829;SDS011;914;48.118;11.600;2023-02-07T00:56:34;14.77;;;10.87;;
1829;SDS011;914;48.118;11.600;2023-02-07T00:58:59;14.50;;;10.93;;
1829;SDS011;914;48.118;11.600;2023-02-07T01:01:26;16.10;;;11.23;;
1829;SDS011;914;48.118;11.600;2023-02-07T01:03:52;16.17;;;11.73;;
1829;SDS011;914;48.118;11.600;2023-02-07T01:06:19;14.60;;;11.60;;
1829;SDS011;914;48.118;11.600;2023-02-07T01:08:45;15.83;;;11.30;;
1829;SDS011;914;48.118;11.600;2023-02-07T01:11:12;16.30;;;11.50;;
1829;SDS011;914;48.118;11.600;2023-02-07T01:13:41;15.93;;;11.60;;
1829;SDS011;914;48.118;11.600;2023-02-07T01:16:22;13.77;;;10.17;;
1829;SDS011;914;48.118;11.600;2023-02-07T01:18:50;16.80;;;11.73;;
1829;SDS011;914;48.118;11.600;2023-02-07T01:21:17;15.93;;;11.77;;
1829;SDS011;914;48.118;11.600;2023-02-07T01:23:44;14.90;;;11.07;;
1829;SDS011;914;48.118;11.600;2023-02-07T01:26:10;15.60;;;11.07;;
1829;SDS011;914;48.118;11.600;2023-02-07T01:28:36;15.37;;;11.27;;
1829;SDS011;914;48.118;11.600;2023-02-07T01:31:05;14.30;;;11.40;;
1829;SDS011;914;48.118;11.600;2023-02-07T01:33:33;16.23;;;10.73;;
1829;SDS011;914;48.118;11.600;2023-02-07T01:35:59;15.00;;;10.27;;
1829;SDS011;914;48.118;11.600;2023-02-07T01:38:29;16.60;;;11.23;;
1829;SDS011;914;48.118;11.600;2023-02-07T01:40:54;14.67;;;11.60;;
1829;SDS011;914;48.118;11.600;2023-02-07T01:43:21;16.13;;;11.03;;
1829;SDS011;914;48.118;11.600;2023-02-07T01:45:49;15.17;;;11.03;;
1829;SDS011;914;48.118;11.600;2023-02-07T01:48:18;13.93;;;10.27;;
1829;SDS011;914;48.118;11.600;2023-02-07T01:50:48;13.67;;;10.00;;
1829;SDS011;914;48.118;11.600;2023-02-07T01:53:16;15.97;;;10.20;;
1829;SDS011;914;48.118;11.600;2023-02-07T01:55:44;12.63;;;9.87;;
1829;SDS011;914;48.118;11.600;2023-02-07T01:58:14;16.00;;;10.30;;
1829;SDS011;914;48.118;11.600;2023-02-07T02:00:41;14.00;;;10.23;;
1829;SDS011;914;48.118;11.600;2023-02-07T02:03:10;11.47;;;9.20;;
1829;SDS011;914;48.118;11.600;2023-02-07T02:05:35;13.70;;;10.27;;
1829;SDS011;914;48.118;11.600;2023-02-07T02:08:03;15.00;;;10.53;;
1829;SDS011;914;48.118;11.600;2023-02-07T02:13:22;14.63;;;10.70;;
1829;SDS011;914;48.118;11.600;2023-02-07T02:19:14;14.63;;;10.23;;
1829;SDS011;914;48.118;11.600;2023-02-07T02:21:58;14.73;;;10.60;;
1829;SDS011;914;48.118;11.600;2023-02-07T02:33:25;13.20;;;9.70;;
1829;SDS011;914;48.118;11.600;2023-02-07T02:35:58;14.00;;;10.03;;
1829;SDS011;914;48.118;11.600;2023-02-07T02:39:50;14.60;;;9.60;;
1829;SDS011;914;48.118;11.600;2023-02-07T02:42:06;14.00;;;9.67;;
1829;SDS011;914;48.118;11.600;2023-02-07T02:44:40;14.07;;;9.83;;
1829;SDS011;914;48.118;11.600;2023-02-07T02:47:11;16.23;;;11.00;;
1829;SDS011;914;48.118;11.600;2023-02-07T02:49:37;13.50;;;9.73;;
1829;SDS011;914;48.118;11.600;2023-02-07T02:52:05;12.67;;;9.57;;
1829;SDS011;914;48.118;11.600;2023-02-07T02:59:34;17.07;;;9.57;;
1829;SDS011;914;48.118;11.600;2023-02-07T03:11:11;15.87;;;9.83;;
1829;SDS011;914;48.118;11.600;2023-02-07T03:13:43;12.93;;;9.67;;
1829;SDS011;914;48.118;11.600;2023-02-07T03:16:30;11.87;;;8.93;;
1829;SDS011;914;48.118;11.600;2023-02-07T03:19:08;14.40;;;9.67;;
1829;SDS011;914;48.118;11.600;2023-02-07T03:21:41;13.87;;;9.27;;
1829;SDS011;914;48.118;11.600;2023-02-07T03:24:17;13.10;;;8.67;;
1829;SDS011;914;48.118;11.600;2023-02-07T03:26:47;12.57;;;9.53;;
1829;SDS011;914;48.118;11.600;2023-02-07T03:29:16;16.97;;;9.40;;
1829;SDS011;914;48.118;11.600;2023-02-07T03:31:46;12.13;;;9.17;;
1829;SDS011;914;48.118;11.600;2023-02-07T03:34:15;12.73;;;9.10;;
1829;SDS011;914;48.118;11.600;2023-02-07T03:39:31;14.53;;;9.57;;
1829;SDS011;914;48.118;11.600;2023-02-07T03:41:58;14.20;;;9.20;;
1829;SDS011;914;48.118;11.600;2023-02-07T03:44:27;13.80;;;9.33;;
1829;SDS011;914;48.118;11.600;2023-02-07T03:46:55;13.73;;;9.20;;
1829;SDS011;914;48.118;11.600;2023-02-07T03:49:22;11.70;;;8.90;;
1829;SDS011;914;48.118;11.600;2023-02-07T03:51:48;13.87;;;10.30;;
1829;SDS011;914;48.118;11.600;2023-02-07T03:54:14;11.40;;;8.80;;
1829;SDS011;914;48.118;11.600;2023-02-07T03:56:39;12.80;;;9.10;;
1829;SDS011;914;48.118;11.600;2023-02-07T03:59:05;10.83;;;8.47;;
1829;SDS011;914;48.118;11.600;2023-02-07T04:01:32;14.20;;;9.40;;
1829;SDS011;914;48.118;11.600;2023-02-07T04:03:59;16.13;;;9.87;;
1829;SDS011;914;48.118;11.600;2023-02-07T04:06:24;13.83;;;9.47;;
1829;SDS011;914;48.118;11.600;2023-02-07T04:08:50;16.40;;;9.97;;
1829;SDS011;914;48.118;11.600;2023-02-07T04:11:15;13.50;;;9.70;;
1829;SDS011;914;48.118;11.600;2023-02-07T04:13:41;13.00;;;9.37;;
1829;SDS011;914;48.118;11.600;2023-02-07T04:16:07;12.97;;;8.83;;
1829;SDS011;914;48.118;11.600;2023-02-07T04:18:32;13.17;;;9.97;;
1829;SDS011;914;48.118;11.600;2023-02-07T04:20:59;14.40;;;9.53;;
1829;SDS011;914;48.118;11.600;2023-02-07T04:23:28;12.43;;;9.53;;
1829;SDS011;914;48.118;11.600;2023-02-07T04:25:54;19.10;;;9.43;;
1829;SDS011;914;48.118;11.600;2023-02-07T04:28:20;13.23;;;9.17;;
1829;SDS011;914;48.118;11.600;2023-02-07T04:30:46;13.30;;;9.33;;
1829;SDS011;914;48.118;11.600;2023-02-07T04:33:14;13.13;;;9.30;;
1829;SDS011;914;48.118;11.600;2023-02-07T04:35:40;14.07;;;10.07;;
1829;SDS011;914;48.118;11.600;2023-02-07T04:38:06;15.13;;;9.60;;
1829;SDS011;914;48.118;11.600;2023-02-07T04:40:31;13.67;;;9.87;;
1829;SDS011;914;48.118;11.600;2023-02-07T04:42:57;15.00;;;10.87;;
1829;SDS011;914;48.118;11.600;2023-02-07T04:45:23;13.33;;;9.47;;
1829;SDS011;914;48.118;11.600;2023-02-07T04:47:49;16.40;;;10.80;;
1829;SDS011;914;48.118;11.600;2023-02-07T04:50:17;14.53;;;10.33;;
1829;SDS011;914;48.118;11.600;2023-02-07T04:52:43;14.33;;;10.10;;
1829;SDS011;914;48.118;11.600;2023-02-07T04:55:09;13.47;;;9.83;;
1829;SDS011;914;48.118;11.600;2023-02-07T04:57:34;13.57;;;9.90;;
1829;SDS011;914;48.118;11.600;2023-02-07T05:00:00;16.40;;;10.20;;
1829;SDS011;914;48.118;11.600;2023-02-07T05:02:27;16.47;;;10.67;;
1829;SDS011;914;48.118;11.600;2023-02-07T05:04:53;15.30;;;10.13;;
1829;SDS011;914;48.118;11.600;2023-02-07T05:07:18;13.83;;;10.80;;
1829;SDS011;914;48.118;11.600;2023-02-07T05:09:44;13.97;;;10.43;;
1829;SDS011;914;48.118;11.600;2023-02-07T05:12:09;15.60;;;10.50;;
1829;SDS011;914;48.118;11.600;2023-02-07T05:14:35;15.50;;;10.50;;
1829;SDS011;914;48.118;11.600;2023-02-07T05:17:01;15.03;;;10.57;;
1829;SDS011;914;48.118;11.600;2023-02-07T05:19:26;13.27;;;9.70;;
1829;SDS011;914;48.118;11.600;2023-02-07T05:21:52;13.00;;;10.20;;
1829;SDS011;914;48.118;11.600;2023-02-07T05:24:18;13.70;;;10.10;;
1829;SDS011;914;48.118;11.600;2023-02-07T05:26:44;14.47;;;10.43;;
1829;SDS011;914;48.118;11.600;2023-02-07T05:29:09;17.37;;;10.37;;
1829;SDS011;914;48.118;11.600;2023-02-07T05:31:35;16.43;;;10.53;;
1829;SDS011;914;48.118;11.600;2023-02-07T05:34:24;15.73;;;10.93;;
1829;SDS011;914;48.118;11.600;2023-02-07T05:36:50;17.90;;;10.77;;
1829;SDS011;914;48.118;11.600;2023-02-07T05:39:15;17.67;;;10.73;;
1829;SDS011;914;48.118;11.600;2023-02-07T05:41:41;14.03;;;10.50;;
1829;SDS011;914;48.118;11.600;2023-02-07T05:44:06;13.87;;;10.00;;
1829;SDS011;914;48.118;11.600;2023-02-07T05:46:32;14.97;;;10.77;;
1829;SDS011;914;48.118;11.600;2023-02-07T05:48:57;14.93;;;10.53;;
1829;SDS011;914;48.118;11.600;2023-02-07T05:51:23;12.57;;;9.47;;
1829;SDS011;914;48.118;11.600;2023-02-07T05:53:49;18.57;;;10.07;;
1829;SDS011;914;48.118;11.600;2023-02-07T05:56:14;16.80;;;10.07;;
1829;SDS011;914;48.118;11.600;2023-02-07T05:58:40;13.90;;;10.27;;
1829;SDS011;914;48.118;11.600;2023-02-07T06:01:05;15.13;;;10.77;;
1829;SDS011;914;48.118;11.600;2023-02-07T06:03:31;13.90;;;9.63;;
1829;SDS011;914;48.118;11.600;2023-02-07T06:05:57;14.00;;;10.10;;
1829;SDS011;914;48.118;11.600;2023-02-07T06:08:22;16.13;;;10.03;;
1829;SDS011;914;48.118;11.600;2023-02-07T06:10:48;13.30;;;9.60;;
1829;SDS011;914;48.118;11.600;2023-02-07T06:13:16;16.07;;;9.77;;
1829;SDS011;914;48.118;11.600;2023-02-07T06:15:42;13.67;;;10.13;;
1829;SDS011;914;48.118;11.600;2023-02-07T06:18:08;13.60;;;9.63;;
1829;SDS011;914;48.118;11.600;2023-02-07T06:20:33;16.57;;;10.23;;
1829;SDS011;914;48.118;11.600;2023-02-07T06:22:59;14.43;;;10.37;;
1829;SDS011;914;48.118;11.600;2023-02-07T06:25:25;14.43;;;9.63;;
1829;SDS011;914;48.118;11.600;2023-02-07T06:27:50;13.37;;;9.40;;
1829;SDS011;914;48.118;11.600;2023-02-07T06:30:16;13.07;;;9.17;;
1829;SDS011;914;48.118;11.600;2023-02-07T06:32:42;12.53;;;9.30;;
1829;SDS011;914;48.118;11.600;2023-02-07T06:35:08;13.37;;;9.27;;
1829;SDS011;914;48.118;11.600;2023-02-07T06:37:34;15.13;;;9.73;;
1829;SDS011;914;48.118;11.600;2023-02-07T06:39:59;14.03;;;9.23;;
1829;SDS011;914;48.118;11.600;2023-02-07T06:42:25;12.50;;;8.70;;
1829;SDS011;914;48.118;11.600;2023-02-07T06:44:51;15.20;;;9.43;;
1829;SDS011;914;48.118;11.600;2023-02-07T06:47:16;13.43;;;9.23;;
1829;SDS011;914;48.118;11.600;2023-02-07T06:49:44;14.23;;;9.13;;
1829;SDS011;914;48.118;11.600;2023-02-07T06:52:11;15.63;;;9.60;;
1829;SDS011;914;48.118;11.600;2023-02-07T06:54:37;14.63;;;10.03;;
1829;SDS011;914;48.118;11.600;2023-02-07T06:57:03;14.90;;;10.17;;
1829;SDS011;914;48.118;11.600;2023-02-07T06:59:32;13.53;;;8.47;;
1829;SDS011;914;48.118;11.600;2023-02-07T07:01:58;13.50;;;9.87;;
1829;SDS011;914;48.118;11.600;2023-02-07T07:04:24;12.83;;;9.10;;
1829;SDS011;914;48.118;11.600;2023-02-07T07:06:51;13.33;;;8.93;;
1829;SDS011;914;48.118;11.600;2023-02-07T07:09:16;15.47;;;9.60;;
1829;SDS011;914;48.118;11.600;2023-02-07T07:11:42;16.60;;;9.80;;
1829;SDS011;914;48.118;11.600;2023-02-07T07:14:09;13.73;;;10.03;;
1829;SDS011;914;48.118;11.600;2023-02-07T07:16:36;13.43;;;9.07;;
1829;SDS011;914;48.118;11.600;2023-02-07T07:19:02;13.57;;;9.30;;
1829;SDS011;914;48.118;11.600;2023-02-07T07:21:27;13.80;;;9.43;;
1829;SDS011;914;48.118;11.600;2023-02-07T07:23:54;14.67;;;9.40;;
1829;SDS011;914;48.118;11.600;2023-02-07T07:26:20;13.90;;;10.17;;
1829;SDS011;914;48.118;11.600;2023-02-07T07:28:45;16.03;;;9.30;;
1829;SDS011;914;48.118;11.600;2023-02-07T07:31:11;14.43;;;10.00;;
1829;SDS011;914;48.118;11.600;2023-02-07T07:33:38;15.17;;;10.30;;
1829;SDS011;914;48.118;11.600;2023-02-07T07:36:03;20.23;;;10.03;;
1829;SDS011;914;48.118;11.600;2023-02-07T07:38:30;14.73;;;9.53;;
1829;SDS011;914;48.118;11.600;2023-02-07T07:40:56;14.53;;;9.73;;
1829;SDS011;914;48.118;11.600;2023-02-07T07:43:23;16.03;;;10.33;;
1829;SDS011;914;48.118;11.600;2023-02-07T07:45:50;14.90;;;10.10;;
1829;SDS011;914;48.118;11.600;2023-02-07T07:48:21;15.73;;;9.57;;
1829;SDS011;914;48.118;11.600;2023-02-07T07:50:48;13.63;;;10.10;;
1829;SDS011;914;48.118;11.600;2023-02-07T07:53:14;13.70;;;9.80;;
1829;SDS011;914;48.118;11.600;2023-02-07T07:55:41;16.07;;;10.03;;
1829;SDS011;914;48.118;11.600;2023-02-07T07:58:07;12.67;;;9.57;;
1829;SDS011;914;48.118;11.600;2023-02-07T08:00:32;14.73;;;9.60;;
1829;SDS011;914;48.118;11.600;2023-02-07T08:02:58;13.37;;;9.77;;
1829;SDS011;914;48.118;11.600;2023-02-07T08:05:23;13.90;;;10.00;;
1829;SDS011;914;48.118;11.600;2023-02-07T08:07:49;14.50;;;9.60;;
1829;SDS011;914;48.118;11.600;2023-02-07T08:10:15;12.13;;;9.03;;
1829;SDS011;914;48.118;11.600;2023-02-07T08:12:41;14.87;;;9.97;;
1829;SDS011;914;48.118;11.600;2023-02-07T08:15:06;15.10;;;9.50;;
1829;SDS011;914;48.118;11.600;2023-02-07T08:17:33;12.20;;;8.27;;
1829;SDS011;914;48.118;11.600;2023-02-07T08:20:02;13.17;;;9.70;;
1829;SDS011;914;48.118;11.600;2023-02-07T08:22:29;13.33;;;9.20;;
1829;SDS011;914;48.118;11.600;2023-02-07T08:24:55;14.33;;;9.57;;
1829;SDS011;914;48.118;11.600;2023-02-07T08:27:21;13.90;;;9.83;;
1829;SDS011;914;48.118;11.600;2023-02-07T08:29:46;13.67;;;9.93;;
1829;SDS011;914;48.118;11.600;2023-02-07T08:32:12;15.47;;;9.67;;
1829;SDS011;914;48.118;11.600;2023-02-07T08:34:38;14.07;;;9.80;;
1829;SDS011;914;48.118;11.600;2023-02-07T08:37:05;13.27;;;9.70;;
1829;SDS011;914;48.118;11.600;2023-02-07T08:39:33;15.67;;;10.33;;
1829;SDS011;914;48.118;11.600;2023-02-07T08:41:59;17.33;;;10.37;;
1829;SDS011;914;48.118;11.600;2023-02-07T08:44:26;16.83;;;10.17;;
1829;SDS011;914;48.118;11.600;2023-02-07T08:46:51;17.77;;;9.87;;
1829;SDS011;914;48.118;11.600;2023-02-07T08:49:17;13.30;;;9.73;;
1829;SDS011;914;48.118;11.600;2023-02-07T08:51:43;17.90;;;10.57;;
1829;SDS011;914;48.118;11.600;2023-02-07T08:54:09;13.73;;;10.03;;
1829;SDS011;914;48.118;11.600;2023-02-07T08:56:34;16.50;;;11.10;;
1829;SDS011;914;48.118;11.600;2023-02-07T08:59:00;13.70;;;9.93;;
1829;SDS011;914;48.118;11.600;2023-02-07T09:01:26;17.43;;;10.10;;
1829;SDS011;914;48.118;11.600;2023-02-07T09:03:55;17.10;;;11.20;;
1829;SDS011;914;48.118;11.600;2023-02-07T09:06:22;15.13;;;10.27;;
1829;SDS011;914;48.118;11.600;2023-02-07T09:08:48;16.43;;;10.87;;
1829;SDS011;914;48.118;11.600;2023-02-07T09:11:14;15.57;;;10.47;;
1829;SDS011;914;48.118;11.600;2023-02-07T09:13:40;14.13;;;10.27;;
1829;SDS011;914;48.118;11.600;2023-02-07T09:16:09;18.23;;;11.27;;
1829;SDS011;914;48.118;11.600;2023-02-07T09:18:36;14.73;;;10.50;;
1829;SDS011;914;48.118;11.600;2023-02-07T09:21:02;15.67;;;10.70;;
1829;SDS011;914;48.118;11.600;2023-02-07T09:23:28;15.20;;;10.27;;
1829;SDS011;914;48.118;11.600;2023-02-07T09:25:58;16.50;;;10.47;;
1829;SDS011;914;48.118;11.600;2023-02-07T09:28:24;12.33;;;9.40;;
1829;SDS011;914;48.118;11.600;2023-02-07T09:30:50;14.00;;;10.63;;
1829;SDS011;914;48.118;11.600;2023-02-07T09:33:16;17.20;;;10.27;;
1829;SDS011;914;48.118;11.600;2023-02-07T09:35:42;14.37;;;10.90;;
1829;SDS011;914;48.118;11.600;2023-02-07T09:38:20;16.07;;;10.93;;
1829;SDS011;914;48.118;11.600;2023-02-07T09:40:48;14.63;;;10.70;;
1829;SDS011;914;48.118;11.600;2023-02-07T09:46:15;14.27;;;10.53;;
1829;SDS011;914;48.118;11.600;2023-02-07T09:51:34;15.83;;;10.90;;
1829;SDS011;914;48.118;11.600;2023-02-07T09:54:01;16.73;;;10.87;;
1829;SDS011;914;48.118;11.600;2023-02-07T09:56:35;12.87;;;10.27;;
1829;SDS011;914;48.118;11.600;2023-02-07T09:59:19;15.10;;;10.63;;
1829;SDS011;914;48.118;11.600;2023-02-07T10:01:49;15.10;;;10.47;;
1829;SDS011;914;48.118;11.600;2023-02-07T10:06:47;14.60;;;10.87;;
1829;SDS011;914;48.118;11.600;2023-02-07T10:09:17;17.93;;;10.57;;
1829;SDS011;914;48.118;11.600;2023-02-07T10:12:17;14.37;;;11.20;;
1829;SDS011;914;48.118;11.600;2023-02-07T10:15:22;12.27;;;9.97;;
1829;SDS011;914;48.118;11.600;2023-02-07T10:18:02;17.50;;;9.87;;
1829;SDS011;914;48.118;11.600;2023-02-07T10:20:53;17.63;;;10.50;;
1829;SDS011;914;48.118;11.600;2023-02-07T10:31:32;20.20;;;12.00;;
1829;SDS011;914;48.118;11.600;2023-02-07T10:34:09;17.40;;;12.63;;
1829;SDS011;914;48.118;11.600;2023-02-07T10:36:45;12.90;;;9.63;;
1829;SDS011;914;48.118;11.600;2023-02-07T10:41:51;12.90;;;9.47;;
1829;SDS011;914;48.118;11.600;2023-02-07T10:44:19;12.83;;;9.10;;
1829;SDS011;914;48.118;11.600;2023-02-07T10:46:46;13.40;;;9.13;;
1829;SDS011;914;48.118;11.600;2023-02-07T10:49:21;11.43;;;8.70;;
1829;SDS011;914;48.118;11.600;2023-02-07T10:51:49;12.43;;;9.23;;
1829;SDS011;914;48.118;11.600;2023-02-07T10:54:16;13.30;;;8.63;;
1829;SDS011;914;48.118;11.600;2023-02-07T10:56:53;10.20;;;7.40;;
1829;SDS011;914;48.118;11.600;2023-02-07T11:01:59;11.43;;;8.57;;
1829;SDS011;914;48.118;11.600;2023-02-07T11:04:35;11.27;;;8.67;;
1829;SDS011;914;48.118;11.600;2023-02-07T11:07:03;15.17;;;8.93;;
1829;SDS011;914;48.118;11.600;2023-02-07T11:09:31;11.83;;;8.37;;
1829;SDS011;914;48.118;11.600;2023-02-07T11:12:01;15.33;;;8.57;;
1829;SDS011;914;48.118;11.600;2023-02-07T11:15:05;9.53;;;7.73;;
1829;SDS011;914;48.118;11.600;2023-02-07T11:17:32;12.73;;;8.77;;
1829;SDS011;914;48.118;11.600;2023-02-07T11:20:02;13.57;;;7.93;;
1829;SDS011;914;48.118;11.600;2023-02-07T11:22:30;12.23;;;7.47;;
1829;SDS011;914;48.118;11.600;2023-02-07T11:25:00;9.47;;;7.30;;
1829;SDS011;914;48.118;11.600;2023-02-07T11:27:29;12.07;;;7.70;;
1829;SDS011;914;48.118;11.600;2023-02-07T11:30:06;9.73;;;7.17;;
1829;SDS011;914;48.118;11.600;2023-02-07T11:32:34;11.17;;;7.93;;
1829;SDS011;914;48.118;11.600;2023-02-07T11:35:09;10.67;;;7.47;;
1829;SDS011;914;48.118;11.600;2023-02-07T11:37:57;12.03;;;6.97;;
1829;SDS011;914;48.118;11.600;2023-02-07T11:45:34;13.77;;;7.67;;
1829;SDS011;914;48.118;11.600;2023-02-07T11:48:02;9.40;;;7.20;;
1829;SDS011;914;48.118;11.600;2023-02-07T11:50:38;10.33;;;6.73;;
1829;SDS011;914;48.118;11.600;2023-02-07T11:53:14;8.57;;;6.67;;
1829;SDS011;914;48.118;11.600;2023-02-07T11:55:54;10.80;;;6.33;;
1829;SDS011;914;48.118;11.600;2023-02-07T11:58:28;11.70;;;7.20;;
1829;SDS011;914;48.118;11.600;2023-02-07T12:00:59;13.23;;;7.80;;
1829;SDS011;914;48.118;11.600;2023-02-07T12:03:26;11.13;;;6.93;;
1829;SDS011;914;48.118;11.600;2023-02-07T12:05:56;14.60;;;6.60;;
1829;SDS011;914;48.118;11.600;2023-02-07T12:08:26;11.20;;;6.23;;
1829;SDS011;914;48.118;11.600;2023-02-07T12:10:55;7.90;;;5.93;;
1829;SDS011;914;48.118;11.600;2023-02-07T12:13:28;10.27;;;6.37;;
1829;SDS011;914;48.118;11.600;2023-02-07T12:18:39;7.70;;;5.10;;
1829;SDS011;914;48.118;11.600;2023-02-07T12:21:18;7.37;;;5.27;;
1829;SDS011;914;48.118;11.600;2023-02-07T12:23:57;4.93;;;4.40;;
1829;SDS011;914;48.118;11.600;2023-02-07T12:29:23;5.37;;;3.17;;
1829;SDS011;914;48.118;11.600;2023-02-07T12:31:53;5.47;;;3.90;;
1829;SDS011;914;48.118;11.600;2023-02-07T12:34:42;3.37;;;3.07;;
1829;SDS011;914;48.118;11.600;2023-02-07T12:37:19;3.87;;;3.00;;
1829;SDS011;914;48.118;11.600;2023-02-07T12:42:37;2.97;;;2.67;;
1829;SDS011;914;48.118;11.600;2023-02-07T12:45:05;3.77;;;3.00;;
1829;SDS011;914;48.118;11.600;2023-02-07T12:47:37;3.03;;;2.73;;
1829;SDS011;914;48.118;11.600;2023-02-07T12:53:12;4.87;;;3.53;;
1829;SDS011;914;48.118;11.600;2023-02-07T12:56:00;6.53;;;3.17;;
1829;SDS011;914;48.118;11.600;2023-02-07T12:58:51;12.47;;;3.50;;
1829;SDS011;914;48.118;11.600;2023-02-07T13:04:19;4.93;;;3.80;;
1829;SDS011;914;48.118;11.600;2023-02-07T13:15:36;6.20;;;3.73;;
1829;SDS011;914;48.118;11.600;2023-02-07T13:21:08;6.87;;;3.90;;
1829;SDS011;914;48.118;11.600;2023-02-07T13:23:50;4.10;;;3.40;;
1829;SDS011;914;48.118;11.600;2023-02-07T13:26:18;6.27;;;4.30;;
1829;SDS011;914;48.118;11.600;2023-02-07T13:28:58;7.17;;;4.10;;
1829;SDS011;914;48.118;11.600;2023-02-07T13:31:36;4.30;;;3.73;;
1829;SDS011;914;48.118;11.600;2023-02-07T13:34:09;6.60;;;3.87;;
1829;SDS011;914;48.118;11.600;2023-02-07T13:36:44;5.73;;;4.10;;
1829;SDS011;914;48.118;11.600;2023-02-07T13:45:09;6.27;;;3.93;;
1829;SDS011;914;48.118;11.600;2023-02-07T13:53:27;9.90;;;4.87;;
1829;SDS011;914;48.118;11.600;2023-02-07T13:56:08;8.80;;;4.47;;
1829;SDS011;914;48.118;11.600;2023-02-07T13:58:55;8.00;;;4.27;;
1829;SDS011;914;48.118;11.600;2023-02-07T14:01:52;5.23;;;4.03;;
1829;SDS011;914;48.118;11.600;2023-02-07T14:04:22;4.87;;;4.17;;
1829;SDS011;914;48.118;11.600;2023-02-07T14:07:02;8.10;;;4.97;;
1829;SDS011;914;48.118;11.600;2023-02-07T14:09:39;7.13;;;5.17;;
1829;SDS011;914;48.118;11.600;2023-02-07T14:14:41;9.30;;;6.17;;
1829;SDS011;914;48.118;11.600;2023-02-07T14:19:51;15.30;;;7.40;;
1829;SDS011;914;48.118;11.600;2023-02-07T14:22:26;12.40;;;6.70;;
1829;SDS011;914;48.118;11.600;2023-02-07T14:27:33;10.20;;;7.13;;
1829;SDS011;914;48.118;11.600;2023-02-07T14:32:44;16.13;;;7.33;;
1829;SDS011;914;48.118;11.600;2023-02-07T14:40:18;10.60;;;7.47;;
1829;SDS011;914;48.118;11.600;2023-02-07T14:42:56;11.37;;;7.60;;
1829;SDS011;914;48.118;11.600;2023-02-07T14:45:33;15.07;;;7.97;;
1829;SDS011;914;48.118;11.600;2023-02-07T14:48:01;11.37;;;6.83;;
1829;SDS011;914;48.118;11.600;2023-02-07T14:50:29;8.17;;;6.23;;
1829;SDS011;914;48.118;11.600;2023-02-07T14:52:57;13.37;;;7.97;;
1829;SDS011;914;48.118;11.600;2023-02-07T15:01:08;13.80;;;7.43;;
1829;SDS011;914;48.118;11.600;2023-02-07T15:03:41;12.80;;;7.63;;
1829;SDS011;914;48.118;11.600;2023-02-07T15:06:15;17.23;;;7.53;;
1829;SDS011;914;48.118;11.600;2023-02-07T15:08:55;11.53;;;6.70;;
1829;SDS011;914;48.118;11.600;2023-02-07T15:11:25;11.40;;;6.57;;
1829;SDS011;914;48.118;11.600;2023-02-07T15:13:55;8.30;;;5.60;;
1829;SDS011;914;48.118;11.600;2023-02-07T15:19:10;10.67;;;6.87;;
1829;SDS011;914;48.118;11.600;2023-02-07T15:21:42;11.27;;;7.57;;
1829;SDS011;914;48.118;11.600;2023-02-07T15:24:23;14.70;;;7.80;;
1829;SDS011;914;48.118;11.600;2023-02-07T15:26:54;11.30;;;7.93;;
1829;SDS011;914;48.118;11.600;2023-02-07T15:29:26;12.30;;;7.33;;
1829;SDS011;914;48.118;11.600;2023-02-07T15:31:56;11.03;;;6.57;;
1829;SDS011;914;48.118;11.600;2023-02-07T15:34:24;14.27;;;7.30;;
1829;SDS011;914;48.118;11.600;2023-02-07T15:36:56;10.83;;;6.60;;
1829;SDS011;914;48.118;11.600;2023-02-07T15:39:39;10.13;;;6.93;;
1829;SDS011;914;48.118;11.600;2023-02-07T15:42:05;11.90;;;7.40;;
1829;SDS011;914;48.118;11.600;2023-02-07T15:44:32;10.97;;;7.63;;
1829;SDS011;914;48.118;11.600;2023-02-07T15:47:15;12.47;;;8.10;;
1829;SDS011;914;48.118;11.600;2023-02-07T15:50:00;13.27;;;7.90;;
1829;SDS011;914;48.118;11.600;2023-02-07T15:52:30;12.13;;;7.90;;
1829;SDS011;914;48.118;11.600;2023-02-07T15:55:11;13.53;;;8.17;;
1829;SDS011;914;48.118;11.600;2023-02-07T15:57:42;14.23;;;9.03;;
1829;SDS011;914;48.118;11.600;2023-02-07T16:00:28;15.37;;;7.97;;
1829;SDS011;914;48.118;11.600;2023-02-07T16:03:00;13.00;;;8.30;;
1829;SDS011;914;48.118;11.600;2023-02-07T16:05:31;14.90;;;8.40;;
1829;SDS011;914;48.118;11.600;2023-02-07T16:08:00;15.07;;;9.17;;
1829;SDS011;914;48.118;11.600;2023-02-07T16:10:31;14.20;;;8.60;;
1829;SDS011;914;48.118;11.600;2023-02-07T16:13:08;14.90;;;9.43;;
1829;SDS011;914;48.118;11.600;2023-02-07T16:15:57;13.27;;;9.07;;
1829;SDS011;914;48.118;11.600;2023-02-07T16:18:41;15.60;;;8.40;;
1829;SDS011;914;48.118;11.600;2023-02-07T16:21:16;14.43;;;8.17;;
1829;SDS011;914;48.118;11.600;2023-02-07T16:23:42;14.27;;;8.33;;
1829;SDS011;914;48.118;11.600;2023-02-07T16:26:09;15.77;;;8.47;;
1829;SDS011;914;48.118;11.600;2023-02-07T16:28:36;15.40;;;9.53;;
1829;SDS011;914;48.118;11.600;2023-02-07T16:31:02;13.03;;;8.50;;
1829;SDS011;914;48.118;11.600;2023-02-07T16:33:27;19.10;;;8.67;;
1829;SDS011;914;48.118;11.600;2023-02-07T16:35:53;13.20;;;8.43;;
1829;SDS011;914;48.118;11.600;2023-02-07T16:38:19;18.87;;;8.67;;
1829;SDS011;914;48.118;11.600;2023-02-07T16:40:44;12.47;;;7.67;;
1829;SDS011;914;48.118;11.600;2023-02-07T16:43:16;13.70;;;9.07;;
1829;SDS011;914;48.118;11.600;2023-02-07T16:45:58;12.77;;;9.00;;
1829;SDS011;914;48.118;11.600;2023-02-07T16:48:26;14.33;;;9.10;;
1829;SDS011;914;48.118;11.600;2023-02-07T16:50:52;14.37;;;8.57;;
1829;SDS011;914;48.118;11.600;2023-02-07T16:53:17;14.40;;;8.07;;
1829;SDS011;914;48.118;11.600;2023-02-07T16:55:44;12.90;;;8.17;;
1829;SDS011;914;48.118;11.600;2023-02-07T16:58:14;12.10;;;7.50;;
1829;SDS011;914;48.118;11.600;2023-02-07T17:00:47;12.83;;;8.30;;
1829;SDS011;914;48.118;11.600;2023-02-07T17:03:13;14.70;;;8.57;;
1829;SDS011;914;48.118;11.600;2023-02-07T17:05:42;14.47;;;7.63;;
1829;SDS011;914;48.118;11.600;2023-02-07T17:08:14;14.40;;;8.30;;
1829;SDS011;914;48.118;11.600;2023-02-07T17:10:52;12.87;;;8.20;;
1829;SDS011;914;48.118;11.600;2023-02-07T17:13:22;12.20;;;7.70;;